EWG9K EDDH-EDDL
Flight info
| Callsign | EWG9K |
|---|---|
| Flight time | 0h 39m |
| Altitude | 30000 |
| Route | IDEKO7G IDEKO N850 ROBEG DCT DENOL T851 HALME HALME1A |
| Aircraft | A320/M-SDE3FGHIRWY/LB1 |
Departure
| Time | 2026-05-04 10:51 |
|---|---|
| Airport | Hamburg Helmut Schmidt Airport (EDDH) |
Arrival
| Time | 2026-05-04 11:31 |
|---|---|
| Airport | Düsseldorf Airport (EDDL) |
| Time | Latitude | Longitude | Altitude | Speed | Heading |
|---|---|---|---|---|---|
| 2026-05-04 10:35 | 53.63336 | 10.00079 | 49 ft | 0 kts | 140° |
| 2026-05-04 10:42 | 53.63342 | 10.00070 | 48 ft | 4 kts | 141° |
| 2026-05-04 10:42 | 53.63364 | 10.00042 | 46 ft | 4 kts | 147° |
| 2026-05-04 10:43 | 53.63387 | 10.00022 | 45 ft | 4 kts | 168° |
| 2026-05-04 10:44 | 53.63411 | 10.00027 | 48 ft | 0 kts | 230° |
| 2026-05-04 10:46 | 53.63410 | 10.00027 | 48 ft | 0 kts | 230° |
| 2026-05-04 10:46 | 53.63398 | 10.00002 | 46 ft | 6 kts | 230° |
| 2026-05-04 10:47 | 53.63358 | 9.99920 | 48 ft | 11 kts | 231° |
| 2026-05-04 10:47 | 53.63304 | 9.99811 | 48 ft | 13 kts | 230° |
| 2026-05-04 10:47 | 53.63275 | 9.99667 | 48 ft | 12 kts | 273° |
| 2026-05-04 10:47 | 53.63281 | 9.99615 | 48 ft | 0 kts | 281° |
| 2026-05-04 10:49 | 53.63347 | 9.99330 | 47 ft | 17 kts | 333° |
| 2026-05-04 10:49 | 53.63674 | 9.99048 | 48 ft | 86 kts | 333° |
| 2026-05-04 10:50 | 53.64376 | 9.98442 | 57 ft | 137 kts | 333° |
| 2026-05-04 10:51 | 53.71790 | 9.90649 | 2976 ft | 242 kts | 286° |
| 2026-05-04 10:52 | 53.71876 | 9.87817 | 3541 ft | 252 kts | 252° |
| 2026-05-04 10:52 | 53.70935 | 9.85373 | 4425 ft | 253 kts | 218° |
| 2026-05-04 10:52 | 53.69332 | 9.84148 | 5369 ft | 256 kts | 197° |
| 2026-05-04 10:54 | 53.57464 | 9.76057 | 10553 ft | 302 kts | 217° |
| 2026-05-04 10:54 | 53.55749 | 9.73899 | 11041 ft | 312 kts | 217° |
| 2026-05-04 10:56 | 53.42977 | 9.57906 | 15644 ft | 340 kts | 217° |
| 2026-05-04 10:56 | 53.41069 | 9.55538 | 16248 ft | 343 kts | 217° |
| 2026-05-04 10:56 | 53.39145 | 9.53154 | 16884 ft | 345 kts | 217° |
| 2026-05-04 10:57 | 53.37206 | 9.50752 | 17512 ft | 348 kts | 217° |
| 2026-05-04 10:57 | 53.35253 | 9.48329 | 18146 ft | 351 kts | 217° |
| 2026-05-04 10:57 | 53.33284 | 9.45887 | 18705 ft | 354 kts | 217° |
| 2026-05-04 10:57 | 53.31292 | 9.43421 | 19258 ft | 357 kts | 217° |
| 2026-05-04 10:58 | 53.29310 | 9.40977 | 19819 ft | 360 kts | 217° |
| 2026-05-04 10:58 | 53.27283 | 9.38474 | 20394 ft | 363 kts | 217° |
| 2026-05-04 10:58 | 53.25242 | 9.35958 | 20938 ft | 366 kts | 217° |
| 2026-05-04 10:58 | 53.23179 | 9.33422 | 21470 ft | 370 kts | 217° |
| 2026-05-04 10:59 | 53.21102 | 9.30871 | 22008 ft | 373 kts | 217° |
| 2026-05-04 10:59 | 53.19004 | 9.28297 | 22538 ft | 376 kts | 217° |
| 2026-05-04 10:59 | 53.16890 | 9.25700 | 23062 ft | 379 kts | 216° |
| 2026-05-04 10:59 | 53.14753 | 9.23078 | 23572 ft | 383 kts | 216° |
| 2026-05-04 11:00 | 53.12599 | 9.20443 | 24010 ft | 385 kts | 216° |
| 2026-05-04 11:01 | 52.97642 | 9.02235 | 25617 ft | 359 kts | 216° |
| 2026-05-04 11:02 | 52.95632 | 8.99803 | 25246 ft | 357 kts | 216° |
| 2026-05-04 11:02 | 52.93636 | 8.97384 | 24860 ft | 355 kts | 216° |
| 2026-05-04 11:05 | 52.65795 | 8.64010 | 23041 ft | 349 kts | 215° |
| 2026-05-04 11:06 | 52.63829 | 8.61673 | 22782 ft | 347 kts | 215° |
| 2026-05-04 11:06 | 52.61896 | 8.59377 | 22525 ft | 346 kts | 215° |
| 2026-05-04 11:06 | 52.59950 | 8.57061 | 22256 ft | 344 kts | 215° |
| 2026-05-04 11:06 | 52.58018 | 8.54766 | 21990 ft | 342 kts | 215° |
| 2026-05-04 11:08 | 52.44718 | 8.39068 | 20205 ft | 331 kts | 215° |
| 2026-05-04 11:10 | 52.31854 | 8.24008 | 18521 ft | 321 kts | 215° |
| 2026-05-04 11:12 | 52.19357 | 8.09354 | 16701 ft | 312 kts | 214° |
| 2026-05-04 11:12 | 52.17583 | 8.07341 | 16447 ft | 311 kts | 214° |
| 2026-05-04 11:12 | 52.15811 | 8.05330 | 16191 ft | 309 kts | 214° |
| 2026-05-04 11:12 | 52.14049 | 8.03324 | 15937 ft | 308 kts | 215° |
| 2026-05-04 11:13 | 52.12300 | 8.01325 | 15689 ft | 307 kts | 215° |
| 2026-05-04 11:13 | 52.10563 | 7.99330 | 15441 ft | 305 kts | 215° |
| 2026-05-04 11:13 | 52.08854 | 7.97363 | 15187 ft | 304 kts | 215° |
| 2026-05-04 11:13 | 52.07135 | 7.95382 | 14946 ft | 303 kts | 215° |
| 2026-05-04 11:14 | 52.03125 | 7.90759 | 14387 ft | 300 kts | 215° |
| 2026-05-04 11:16 | 51.90230 | 7.76009 | 12423 ft | 291 kts | 214° |
| 2026-05-04 11:16 | 51.88574 | 7.74124 | 12170 ft | 290 kts | 215° |
| 2026-05-04 11:16 | 51.86925 | 7.72249 | 11911 ft | 289 kts | 215° |
| 2026-05-04 11:17 | 51.85353 | 7.70321 | 11660 ft | 288 kts | 222° |
| 2026-05-04 11:17 | 51.83914 | 7.68075 | 11409 ft | 287 kts | 223° |
| 2026-05-04 11:19 | 51.74017 | 7.52671 | 9816 ft | 269 kts | 223° |
| 2026-05-04 11:19 | 51.72677 | 7.50594 | 9676 ft | 267 kts | 223° |
| 2026-05-04 11:19 | 51.71334 | 7.48513 | 9555 ft | 267 kts | 223° |
| 2026-05-04 11:19 | 51.69991 | 7.46440 | 9421 ft | 267 kts | 223° |
| 2026-05-04 11:20 | 51.68653 | 7.44378 | 9289 ft | 266 kts | 223° |
| 2026-05-04 11:20 | 51.67318 | 7.42316 | 9161 ft | 266 kts | 223° |
| 2026-05-04 11:20 | 51.66002 | 7.40283 | 9033 ft | 266 kts | 223° |
| 2026-05-04 11:20 | 51.64669 | 7.38225 | 8903 ft | 265 kts | 223° |
| 2026-05-04 11:22 | 51.55360 | 7.23926 | 6869 ft | 261 kts | 223° |
| 2026-05-04 11:22 | 51.54054 | 7.21932 | 6370 ft | 259 kts | 223° |
| 2026-05-04 11:23 | 51.52752 | 7.19946 | 5851 ft | 256 kts | 223° |
| 2026-05-04 11:23 | 51.51482 | 7.18005 | 5353 ft | 254 kts | 223° |
| 2026-05-04 11:24 | 51.44067 | 7.06698 | 3639 ft | 232 kts | 223° |
| 2026-05-04 11:25 | 51.42926 | 7.04964 | 3485 ft | 217 kts | 223° |
| 2026-05-04 11:25 | 51.41865 | 7.03356 | 3328 ft | 203 kts | 224° |
| 2026-05-04 11:25 | 51.40857 | 7.01826 | 3193 ft | 199 kts | 224° |
| 2026-05-04 11:26 | 51.39096 | 6.98671 | 3013 ft | 179 kts | 232° |
| 2026-05-04 11:27 | 51.34185 | 6.88303 | 1760 ft | 153 kts | 232° |
| 2026-05-04 11:28 | 51.33575 | 6.87007 | 1537 ft | 141 kts | 233° |
| 2026-05-04 11:28 | 51.32994 | 6.85781 | 1333 ft | 136 kts | 232° |
| 2026-05-04 11:28 | 51.32425 | 6.84584 | 1179 ft | 137 kts | 233° |
| 2026-05-04 11:28 | 51.31859 | 6.83394 | 974 ft | 135 kts | 232° |
| 2026-05-04 11:29 | 51.31288 | 6.82193 | 787 ft | 137 kts | 232° |
| 2026-05-04 11:29 | 51.30716 | 6.80999 | 572 ft | 134 kts | 235° |
| 2026-05-04 11:29 | 51.30150 | 6.79804 | 409 ft | 136 kts | 235° |
| 2026-05-04 11:29 | 51.29584 | 6.78612 | 240 ft | 134 kts | 233° |
| 2026-05-04 11:31 | 51.28208 | 6.76189 | 126 ft | 12 kts | 68° |
| 2026-05-04 11:33 | 51.28011 | 6.76417 | 130 ft | 0 kts | 208° |